Skiff — 5VCS7 — position and weather

sailwx.info

Track history (hours):
 
Tides and Currents Weather Stations Pressure Air Temp Water Temp Dewpoint Dewpoint Depression Visibility Wind Speed Wind Dir Waves Ship Positions

Skiff

Last reported at 2018-Apr-22 21:30 UTC. Time now 2018-Apr-22 21:42 UTC.
Position N 46°57' E 031°58'.

Length 84 m; draft 3.2 m.

Type: Cargo ship. MMSI: 671480000.

Date/timePositionNaut miles runAvg speedWind from/ knotsBaromVisibWave heightAir tempDewpointWater temp
2018-Apr-22 21:30N 46°57' E 031°58'0 0.0
2018-Apr-22 21:00N 46°57' E 031°58'0 0.0
2018-Apr-22 20:30N 46°57' E 031°58'0 0.0
2018-Apr-22 20:00N 46°57' E 031°58'0 0.0
2018-Apr-22 19:30N 46°57' E 031°58'0 0.0
2018-Apr-22 19:00N 46°57' E 031°58'0 0.0
2018-Apr-22 18:30N 46°57' E 031°58'0 0.0
2018-Apr-22 18:00N 46°57' E 031°58'0 0.0
2018-Apr-22 17:30N 46°57' E 031°58'0 0.0
2018-Apr-22 17:00N 46°57' E 031°58'0 0.0
2018-Apr-22 16:30N 46°57' E 031°58'0 0.0
2018-Apr-22 16:00N 46°57' E 031°58'0 0.0
2018-Apr-22 15:30N 46°57' E 031°58'0 0.0
2018-Apr-22 15:00N 46°57' E 031°58'0 0.0
2018-Apr-22 14:30N 46°57' E 031°58'0 0.0
2018-Apr-22 14:00N 46°57' E 031°58'0 0.0
2018-Apr-22 13:30N 46°57' E 031°58'0 0.0
2018-Apr-22 13:00N 46°57' E 031°58'0 0.0
2018-Apr-22 12:30N 46°57' E 031°58'0 0.0
2018-Apr-22 12:00N 46°57' E 031°58'0 0.0
2018-Apr-22 11:30N 46°57' E 031°58'0 0.0
2018-Apr-22 11:00N 46°57' E 031°58'0 0.0
2018-Apr-22 10:30N 46°57' E 031°58'0 0.0
2018-Apr-22 09:59N 46°57' E 031°58'0 0.0
2018-Apr-22 09:29N 46°57' E 031°58'0 0.0
2018-Apr-22 08:59N 46°57' E 031°58'0 0.0
2018-Apr-22 08:29N 46°57' E 031°58'0 0.0
2018-Apr-22 07:59N 46°57' E 031°58'0 0.0
2018-Apr-22 07:29N 46°57' E 031°58'0 0.0
2018-Apr-22 06:59N 46°57' E 031°58'0 0.0
2018-Apr-22 06:29N 46°57' E 031°58'0 0.0
2018-Apr-22 05:59N 46°57' E 031°58'0 0.0
2018-Apr-22 05:29N 46°57' E 031°58'0 0.0
2018-Apr-22 04:59N 46°57' E 031°58'0 0.0
2018-Apr-22 04:29N 46°57' E 031°58'0 0.0
2018-Apr-22 03:59N 46°57' E 031°58'0 0.0
2018-Apr-22 03:29N 46°57' E 031°58'0 0.0
2018-Apr-22 02:59N 46°57' E 031°58'0 0.0
2018-Apr-22 02:29N 46°57' E 031°58'0 0.0
2018-Apr-22 01:59N 46°57' E 031°58'0 0.0
2018-Apr-22 01:26N 46°57' E 031°58'0 0.0
2018-Apr-22 00:59N 46°57' E 031°58'0 0.0
2018-Apr-22 00:29N 46°57' E 031°58'0 0.0
2018-Apr-21 23:59N 46°57' E 031°58'0 0.0
2018-Apr-21 23:29N 46°57' E 031°58'0 0.0
2018-Apr-21 22:59N 46°57' E 031°58'0 0.0
2018-Apr-21 22:29N 46°57' E 031°58'0 0.0
2018-Apr-21 21:59N 46°57' E 031°58'0 0.0
2018-Apr-21 21:29N 46°57' E 031°58'0 0.0
2018-Apr-21 20:59N 46°57' E 031°58'0 0.0
2018-Apr-21 20:29N 46°57' E 031°58'0 0.0
2018-Apr-21 19:59N 46°57' E 031°58'0 0.0
2018-Apr-21 19:29N 46°57' E 031°58'0 0.0
2018-Apr-21 18:59N 46°57' E 031°58'0 0.0
2018-Apr-21 18:29N 46°57' E 031°58'0 0.0
2018-Apr-21 17:59N 46°57' E 031°58'0 0.0
2018-Apr-21 17:29N 46°57' E 031°58'0 0.0
2018-Apr-21 16:59N 46°57' E 031°58'0 0.0
2018-Apr-21 16:29N 46°57' E 031°58'0 0.0
2018-Apr-21 15:59N 46°57' E 031°58'0 0.1
2018-Apr-21 15:29N 46°57' E 031°58'0 0.1
2018-Apr-21 14:59N 46°57' E 031°58'0 0.0
2018-Apr-21 14:29N 46°57' E 031°58'0 0.0
2018-Apr-21 13:59N 46°57' E 031°58'0 0.0
2018-Apr-21 13:29N 46°57' E 031°58'0 0.0
2018-Apr-21 12:59N 46°57' E 031°58'0 0.0
2018-Apr-21 12:29N 46°57' E 031°58'0 0.0
2018-Apr-21 11:59N 46°57' E 031°58'0 0.9
2018-Apr-21 11:30N 46°56' E 031°59'2 4.2
2018-Apr-21 11:00N 46°55' E 032°01'4 8.8
2018-Apr-21 10:30N 46°51' E 031°57'4 8.9
2018-Apr-21 10:00N 46°48' E 031°53'4 8.3
2018-Apr-21 09:30N 46°44' E 031°56'4 8.6
2018-Apr-21 09:00N 46°40' E 031°56'8 8.3
2018-Apr-21 08:06N 46°36' E 031°47'34 8.1
2018-Apr-21 03:55N 46°33' E 030°58'1 3.3
2018-Apr-21 03:29N 46°31' E 030°57'4 5.9
2018-Apr-21 02:53N 46°28' E 030°57'3 8.4
2018-Apr-21 02:29N 46°25' E 030°57'4 8.3
2018-Apr-21 01:58N 46°20' E 030°57'4 8.3
2018-Apr-21 01:26N 46°16' E 030°59'  
Track history (hours):
 
Tides and Currents Weather Stations Pressure Air Temp Water Temp Dewpoint Dewpoint Depression Visibility Wind Speed Wind Dir Waves Ship Positions

Skiff

Last reported at 2018-Apr-22 21:30 UTC. Time now 2018-Apr-22 21:42 UTC.
Position N 46°57' E 031°58'.

Length 84 m; draft 3.2 m.

Type: Cargo ship. MMSI: 671480000.

Date/timePositionNaut miles runAvg speedWind from/ knotsBaromVisibWave heightAir tempDewpointWater temp
2018-Apr-22 21:30N 46°57' E 031°58'0 0.0
2018-Apr-22 21:00N 46°57' E 031°58'0 0.0
2018-Apr-22 20:30N 46°57' E 031°58'0 0.0
2018-Apr-22 20:00N 46°57' E 031°58'0 0.0
2018-Apr-22 19:30N 46°57' E 031°58'0 0.0
2018-Apr-22 19:00N 46°57' E 031°58'0 0.0
2018-Apr-22 18:30N 46°57' E 031°58'0 0.0
2018-Apr-22 18:00N 46°57' E 031°58'0 0.0
2018-Apr-22 17:30N 46°57' E 031°58'0 0.0
2018-Apr-22 17:00N 46°57' E 031°58'0 0.0
2018-Apr-22 16:30N 46°57' E 031°58'0 0.0
2018-Apr-22 16:00N 46°57' E 031°58'0 0.0
2018-Apr-22 15:30N 46°57' E 031°58'0 0.0
2018-Apr-22 15:00N 46°57' E 031°58'0 0.0
2018-Apr-22 14:30N 46°57' E 031°58'0 0.0
2018-Apr-22 14:00N 46°57' E 031°58'0 0.0
2018-Apr-22 13:30N 46°57' E 031°58'0 0.0
2018-Apr-22 13:00N 46°57' E 031°58'0 0.0
2018-Apr-22 12:30N 46°57' E 031°58'0 0.0
2018-Apr-22 12:00N 46°57' E 031°58'0 0.0
2018-Apr-22 11:30N 46°57' E 031°58'0 0.0
2018-Apr-22 11:00N 46°57' E 031°58'0 0.0
2018-Apr-22 10:30N 46°57' E 031°58'0 0.0
2018-Apr-22 09:59N 46°57' E 031°58'0 0.0
2018-Apr-22 09:29N 46°57' E 031°58'0 0.0
2018-Apr-22 08:59N 46°57' E 031°58'0 0.0
2018-Apr-22 08:29N 46°57' E 031°58'0 0.0
2018-Apr-22 07:59N 46°57' E 031°58'0 0.0
2018-Apr-22 07:29N 46°57' E 031°58'0 0.0
2018-Apr-22 06:59N 46°57' E 031°58'0 0.0
2018-Apr-22 06:29N 46°57' E 031°58'0 0.0
2018-Apr-22 05:59N 46°57' E 031°58'0 0.0
2018-Apr-22 05:29N 46°57' E 031°58'0 0.0
2018-Apr-22 04:59N 46°57' E 031°58'0 0.0
2018-Apr-22 04:29N 46°57' E 031°58'0 0.0
2018-Apr-22 03:59N 46°57' E 031°58'0 0.0
2018-Apr-22 03:29N 46°57' E 031°58'0 0.0
2018-Apr-22 02:59N 46°57' E 031°58'0 0.0
2018-Apr-22 02:29N 46°57' E 031°58'0 0.0
2018-Apr-22 01:59N 46°57' E 031°58'0 0.0
2018-Apr-22 01:26N 46°57' E 031°58'0 0.0
2018-Apr-22 00:59N 46°57' E 031°58'0 0.0
2018-Apr-22 00:29N 46°57' E 031°58'0 0.0
2018-Apr-21 23:59N 46°57' E 031°58'0 0.0
2018-Apr-21 23:29N 46°57' E 031°58'0 0.0
2018-Apr-21 22:59N 46°57' E 031°58'0 0.0
2018-Apr-21 22:29N 46°57' E 031°58'0 0.0
2018-Apr-21 21:59N 46°57' E 031°58'0 0.0
2018-Apr-21 21:29N 46°57' E 031°58'0 0.0
2018-Apr-21 20:59N 46°57' E 031°58'0 0.0
2018-Apr-21 20:29N 46°57' E 031°58'0 0.0
2018-Apr-21 19:59N 46°57' E 031°58'0 0.0
2018-Apr-21 19:29N 46°57' E 031°58'0 0.0
2018-Apr-21 18:59N 46°57' E 031°58'0 0.0
2018-Apr-21 18:29N 46°57' E 031°58'0 0.0
2018-Apr-21 17:59N 46°57' E 031°58'0 0.0
2018-Apr-21 17:29N 46°57' E 031°58'0 0.0
2018-Apr-21 16:59N 46°57' E 031°58'0 0.0
2018-Apr-21 16:29N 46°57' E 031°58'0 0.0
2018-Apr-21 15:59N 46°57' E 031°58'0 0.1
2018-Apr-21 15:29N 46°57' E 031°58'0 0.1
2018-Apr-21 14:59N 46°57' E 031°58'0 0.0
2018-Apr-21 14:29N 46°57' E 031°58'0 0.0
2018-Apr-21 13:59N 46°57' E 031°58'0 0.0
2018-Apr-21 13:29N 46°57' E 031°58'0 0.0
2018-Apr-21 12:59N 46°57' E 031°58'0 0.0
2018-Apr-21 12:29N 46°57' E 031°58'0 0.0
2018-Apr-21 11:59N 46°57' E 031°58'0 0.9
2018-Apr-21 11:30N 46°56' E 031°59'2 4.2
2018-Apr-21 11:00N 46°55' E 032°01'4 8.8
2018-Apr-21 10:30N 46°51' E 031°57'4 8.9
2018-Apr-21 10:00N 46°48' E 031°53'4 8.3
2018-Apr-21 09:30N 46°44' E 031°56'4 8.6
2018-Apr-21 09:00N 46°40' E 031°56'8 8.3
2018-Apr-21 08:06N 46°36' E 031°47'34 8.1
2018-Apr-21 03:55N 46°33' E 030°58'1 3.3
2018-Apr-21 03:29N 46°31' E 030°57'4 5.9
2018-Apr-21 02:53N 46°28' E 030°57'3 8.4
2018-Apr-21 02:29N 46°25' E 030°57'4 8.3
2018-Apr-21 01:58N 46°20' E 030°57'4 8.3
2018-Apr-21 01:26N 46°16' E 030°59'  

Dump ship's entire track history